Time;durP1;ratioP1;P1;durP2;ratioP2;P2;SDS_P1;SDS_P2;PMS_P1;PMS_P2;Temp;Humidity;BMP_temperature;BMP_pressure;BME280_temperature;BME280_humidity;BME280_pressure;Samples;Min_cycle;Max_cycle;Signal;HPM_P1;HPM_P2
2021/12/09 00:01:49;;;;;;;;;13.00;8.00;;;;;6.35;62.64;100403.72;5052279;28;46646;-85
2021/12/09 00:04:23;;;;;;;;;9.00;7.75;;;;;6.35;62.55;100420.25;5059463;28;45319;-85
2021/12/09 00:06:48;;;;;;;;;4.75;4.25;;;;;6.31;62.43;100405.56;5060763;28;45452;-85
2021/12/09 00:09:18;;;;;;;;;4.25;3.00;;;;;6.30;62.41;100402.09;5061128;28;45480;-85
2021/12/09 00:11:46;;;;;;;;;7.50;3.75;;;;;6.29;62.78;100397.78;5062021;28;45534;-85
2021/12/09 00:14:16;;;;;;;;;2.50;2.00;;;;;6.34;62.45;100402.91;5062336;28;45441;-85
2021/12/09 00:16:42;;;;;;;;;3.00;3.00;;;;;6.34;62.82;100396.81;5059857;28;45215;-87
2021/12/09 00:19:07;;;;;;;;;3.00;1.50;;;;;6.32;62.70;100403.81;5053849;28;45410;-89
2021/12/09 00:21:37;;;;;;;;;3.00;1.50;;;;;6.37;62.04;100410.63;5060449;28;45589;-96
2021/12/09 00:24:03;;;;;;;;;3.75;1.75;;;;;6.34;62.32;100405.50;5063845;27;45490;-86
2021/12/09 00:26:29;;;;;;;;;2.75;2.00;;;;;6.34;62.56;100410.72;5056575;28;45425;-83
2021/12/09 00:28:55;;;;;;;;;2.00;2.00;;;;;6.36;62.60;100413.28;5058618;28;45266;-88
2021/12/09 00:31:20;;;;;;;;;1.00;1.00;;;;;6.33;62.28;100415.97;5061651;28;45312;-87
2021/12/09 00:33:47;;;;;;;;;1.75;1.75;;;;;6.32;62.42;100412.50;5062361;28;45267;-88
2021/12/09 00:36:26;;;;;;;;;2.50;1.00;;;;;6.30;62.54;100409.03;5053131;28;45316;-88
2021/12/09 00:38:53;;;;;;;;;2.75;1.00;;;;;6.33;61.88;100414.22;5060810;28;45365;-87
2021/12/09 00:41:18;;;;;;;;;2.50;1.50;;;;;6.30;62.39;100407.31;5061630;28;45485;-87
2021/12/09 00:43:43;;;;;;;;;1.25;1.25;;;;;6.29;62.11;100405.59;5061952;28;45267;-87
2021/12/09 00:46:10;;;;;;;;;1.00;1.00;;;;;6.28;62.09;100405.63;5058228;28;45321;-87
2021/12/09 00:48:36;;;;;;;;;1.25;1.25;;;;;6.29;62.24;100416.03;5057564;28;45450;-87
2021/12/09 00:51:04;;;;;;;;;0.75;0.00;;;;;6.31;62.00;100410.78;5051420;28;46563;-87
2021/12/09 00:53:30;;;;;;;;;1.00;1.00;;;;;6.27;62.17;100417.81;5059454;28;45476;-90
2021/12/09 00:55:56;;;;;;;;;1.00;1.00;;;;;6.29;62.36;100429.09;5062069;28;45372;-92
2021/12/09 00:58:22;;;;;;;;;1.50;1.50;;;;;6.31;62.49;100434.28;5058694;28;45253;-92
2021/12/09 01:00:48;;;;;;;;;0.00;0.00;;;;;6.28;62.59;100423.88;5060011;28;47596;-93
2021/12/09 01:03:14;;;;;;;;;2.00;2.00;;;;;6.27;62.39;100428.25;5056777;28;45260;-86
2021/12/09 01:05:40;;;;;;;;;1.75;1.75;;;;;6.23;62.58;100429.19;5059627;28;45299;-87
2021/12/09 01:08:06;;;;;;;;;1.25;1.25;;;;;6.24;62.73;100428.31;5061580;28;45340;-88
2021/12/09 01:10:32;;;;;;;;;1.00;1.00;;;;;6.24;62.62;100433.53;5061324;28;45235;-89
2021/12/09 01:13:00;;;;;;;;;1.50;1.25;;;;;6.25;62.52;100440.47;5059258;28;45730;-93
2021/12/09 01:15:27;;;;;;;;;2.00;2.00;;;;;6.19;62.44;100431.03;5057316;28;45362;-88
2021/12/09 01:17:52;;;;;;;;;1.00;1.00;;;;;6.23;62.95;100434.41;5047058;28;45368;-88
2021/12/09 01:20:25;;;;;;;;;2.00;1.00;;;;;6.26;62.72;100434.38;5058123;28;46379;-87
2021/12/09 01:22:53;;;;;;;;;3.50;1.00;;;;;6.26;62.70;100434.38;5061530;28;45847;-89
2021/12/09 01:25:20;;;;;;;;;3.00;3.00;;;;;6.23;62.84;100436.16;5061216;28;45532;-88
2021/12/09 01:27:47;;;;;;;;;3.50;2.00;;;;;6.22;62.47;100434.47;5061172;28;45393;-87
2021/12/09 01:30:17;;;;;;;;;1.00;1.00;;;;;6.22;62.64;100440.56;5046772;28;45319;-85
2021/12/09 01:35:59;;;;;;;;;1.00;0.25;;;;;6.25;62.56;100456.13;5048865;28;45205;-81
2021/12/09 01:38:28;;;;;;;;;2.00;2.00;;;;;6.23;62.83;100447.47;5043234;28;45485;-87
2021/12/09 01:40:55;;;;;;;;;2.00;2.00;;;;;6.23;62.71;100449.22;5055718;28;46711;-87
2021/12/09 01:43:21;;;;;;;;;3.00;2.75;;;;;6.19;62.79;100453.66;5059375;28;45723;-87
2021/12/09 01:45:47;;;;;;;;;1.00;1.00;;;;;6.22;62.33;100466.66;5056745;28;45342;-87
2021/12/09 01:48:13;;;;;;;;;1.00;1.00;;;;;6.19;62.29;100471.91;5042574;28;46310;-87
2021/12/09 01:50:38;;;;;;;;;1.25;1.25;;;;;6.15;62.53;100455.44;5055900;28;46699;-87
2021/12/09 01:53:07;;;;;;;;;1.00;1.00;;;;;6.16;62.90;100456.31;5060807;28;45255;-88
2021/12/09 01:55:34;;;;;;;;;2.00;1.50;;;;;6.19;63.25;100461.47;5060065;28;45369;-87
2021/12/09 01:58:00;;;;;;;;;3.00;2.00;;;;;6.17;63.01;100465.88;5060355;28;45240;-87
2021/12/09 02:00:30;;;;;;;;;4.00;2.50;;;;;6.16;63.42;100478.06;5055161;28;45616;-86
2021/12/09 02:02:55;;;;;;;;;3.00;2.00;;;;;6.18;63.42;100478.00;5060489;28;45402;-87
2021/12/09 02:05:21;;;;;;;;;2.25;2.25;;;;;6.16;63.32;100472.84;5060589;28;45236;-86
2021/12/09 02:07:48;;;;;;;;;4.75;3.00;;;;;6.15;62.87;100475.50;5060682;28;45214;-87
2021/12/09 02:10:17;;;;;;;;;3.00;3.00;;;;;6.13;63.11;100467.66;5049266;28;45267;-86
2021/12/09 02:12:43;;;;;;;;;5.75;4.00;;;;;6.18;63.21;100480.63;5060430;28;45442;-87
2021/12/09 02:15:09;;;;;;;;;4.00;4.00;;;;;6.14;62.76;100474.63;5059178;28;45440;-87
2021/12/09 02:17:35;;;;;;;;;3.75;3.75;;;;;6.16;63.57;100480.66;5053852;28;47513;-87
2021/12/09 02:20:04;;;;;;;;;5.00;3.00;;;;;6.15;63.22;100475.50;5055397;28;46178;-86
2021/12/09 02:22:30;;;;;;;;;7.50;5.75;;;;;6.12;63.17;100475.53;5060497;28;45770;-87
2021/12/09 02:24:56;;;;;;;;;4.00;4.00;;;;;6.07;63.21;100473.84;5049670;28;45351;-88
2021/12/09 02:27:23;;;;;;;;;3.25;3.25;;;;;6.05;63.62;100467.78;5057198;28;45793;-88
2021/12/09 02:29:50;;;;;;;;;4.00;4.00;;;;;6.07;63.04;100473.84;5059047;28;46155;-86
2021/12/09 02:32:15;;;;;;;;;4.00;4.00;;;;;6.06;63.08;100476.47;5060010;28;45220;-86
2021/12/09 02:34:41;;;;;;;;;5.75;5.75;;;;;6.06;63.24;100479.94;5058878;28;45261;-84
2021/12/09 02:37:09;;;;;;;;;3.50;2.75;;;;;6.04;63.37;100476.50;5046912;28;45275;-84
2021/12/09 02:39:35;;;;;;;;;9.25;5.00;;;;;6.00;63.28;100472.22;5044617;28;46103;-85
2021/12/09 02:42:01;;;;;;;;;7.50;5.00;;;;;5.97;63.41;100467.91;5060066;28;45328;-88
2021/12/09 02:44:27;;;;;;;;;3.25;3.25;;;;;5.89;63.08;100476.78;5060021;28;45538;-89
2021/12/09 02:46:55;;;;;;;;;4.25;3.75;;;;;5.88;63.56;100472.47;5075820;28;47063;-92
2021/12/09 02:49:26;;;;;;;;;3.25;2.00;;;;;5.87;63.52;100471.59;5045002;28;47960;-92
2021/12/09 02:51:52;;;;;;;;;2.00;2.00;;;;;5.91;63.19;100477.59;5049440;28;45779;-93
2021/12/09 02:54:20;;;;;;;;;3.75;1.75;;;;;5.85;63.50;100471.59;5055684;28;45396;-92
2021/12/09 02:56:49;;;;;;;;;2.00;1.00;;;;;5.88;63.79;100470.69;5055644;28;46333;-92
2021/12/09 02:59:16;;;;;;;;;2.00;1.50;;;;;5.91;63.12;100469.78;5043092;28;45635;-92
2021/12/09 03:02:09;;;;;;;;;1.00;1.00;;;;;5.88;63.43;100462.03;5058607;28;45493;-88
2021/12/09 03:04:54;;;;;;;;;2.00;1.00;;;;;5.88;63.17;100475.06;5059587;28;45317;-91
2021/12/09 03:07:31;;;;;;;;;2.00;1.00;;;;;5.86;63.36;100482.91;5047269;28;47138;-91
2021/12/09 03:10:01;;;;;;;;;1.00;1.00;;;;;5.87;63.24;100475.94;5058218;28;45556;-92
2021/12/09 03:12:29;;;;;;;;;2.00;0.50;;;;;5.94;63.56;100490.59;5047318;28;45235;-94
2021/12/09 03:14:55;;;;;;;;;1.50;1.50;;;;;5.93;63.68;100492.34;5058391;28;45412;-92
2021/12/09 03:17:20;;;;;;;;;2.50;1.00;;;;;5.95;63.41;100471.47;5059437;28;45585;-89
2021/12/09 03:19:47;;;;;;;;;1.25;1.25;;;;;5.96;63.70;100468.81;5059404;28;45366;-89
2021/12/09 03:22:16;;;;;;;;;2.25;2.25;;;;;6.05;63.39;100480.81;5047169;28;45405;-87
2021/12/09 03:24:42;;;;;;;;;1.25;1.25;;;;;6.04;63.42;100484.34;5059137;28;45232;-87
2021/12/09 03:27:08;;;;;;;;;1.00;1.00;;;;;6.07;63.55;100473.84;5058615;28;45523;-87
2021/12/09 03:29:35;;;;;;;;;2.75;1.75;;;;;6.02;63.51;100470.47;5059360;28;46610;-88
2021/12/09 03:32:07;;;;;;;;;2.00;2.00;;;;;6.02;63.26;100474.81;5058670;28;45394;-87
2021/12/09 03:34:35;;;;;;;;;3.00;1.25;;;;;6.06;63.39;100486.91;5058222;28;45462;-87
2021/12/09 03:37:04;;;;;;;;;3.00;1.50;;;;;6.07;63.36;100486.06;5052688;28;47123;-87
2021/12/09 03:39:33;;;;;;;;;1.00;1.00;;;;;6.08;63.83;100485.16;5050349;28;46774;-87
2021/12/09 03:41:59;;;;;;;;;1.50;1.50;;;;;6.13;63.17;100498.13;5061422;28;45766;-87
2021/12/09 03:44:27;;;;;;;;;4.25;1.00;;;;;6.09;62.95;100502.53;5058233;28;45312;-87
2021/12/09 03:46:55;;;;;;;;;0.00;0.00;;;;;6.05;63.21;100491.25;5057263;28;45520;-87
2021/12/09 03:49:23;;;;;;;;;1.25;1.25;;;;;6.04;63.26;100494.78;5058952;28;45411;-87
2021/12/09 03:51:48;;;;;;;;;3.25;1.00;;;;;6.12;63.22;100497.28;5059322;28;45413;-87
2021/12/09 03:54:14;;;;;;;;;1.25;1.00;;;;;6.17;63.40;100498.03;5056003;28;45454;-86
2021/12/09 03:56:39;;;;;;;;;2.00;2.00;;;;;6.18;63.38;100499.75;5059056;28;45224;-87
2021/12/09 03:59:07;;;;;;;;;1.25;1.25;;;;;6.22;63.50;100505.81;5053367;28;45441;-94
2021/12/09 04:01:37;;;;;;;;;1.25;1.25;;;;;6.24;63.52;100503.16;5053747;28;45968;-96
2021/12/09 04:04:03;;;;;;;;;0.50;0.50;;;;;6.29;62.92;100511.75;5071366;28;45276;-93
2021/12/09 04:06:29;;;;;;;;;2.25;1.25;;;;;6.29;63.26;100511.75;5059822;28;46613;-94
2021/12/09 04:08:55;;;;;;;;;2.00;2.00;;;;;6.31;62.99;100520.41;5057012;28;45543;-94
2021/12/09 04:11:21;;;;;;;;;3.00;1.00;;;;;6.33;63.01;100515.16;5041108;28;45448;-86
2021/12/09 04:13:46;;;;;;;;;1.00;1.00;;;;;6.36;62.95;100521.19;5052313;28;45413;-93
2021/12/09 04:16:11;;;;;;;;;1.25;1.25;;;;;6.37;62.85;100516.84;5057415;27;45773;-82
2021/12/09 04:18:39;;;;;;;;;2.00;1.00;;;;;6.35;62.79;100514.25;5043709;28;46033;-89
2021/12/09 04:21:05;;;;;;;;;0.50;0.50;;;;;6.33;63.01;100516.03;5060612;28;45321;-89
2021/12/09 04:23:32;;;;;;;;;1.50;1.50;;;;;6.36;63.29;100529.03;5061135;28;45185;-90
2021/12/09 04:25:58;;;;;;;;;1.00;1.00;;;;;6.36;62.67;100520.34;5062205;28;45368;-90
2021/12/09 04:28:23;;;;;;;;;1.00;1.00;;;;;6.39;62.92;100523.75;5060756;28;47234;-93
2021/12/09 04:30:49;;;;;;;;;5.25;1.25;;;;;6.40;63.14;100521.97;5059888;28;45269;-92
2021/12/09 04:33:15;;;;;;;;;1.00;1.00;;;;;6.41;63.03;100523.72;5059627;28;45382;-91
2021/12/09 04:35:40;;;;;;;;;2.00;1.75;;;;;6.44;63.04;100522.81;5050115;28;45309;-93
2021/12/09 04:38:06;;;;;;;;;2.00;1.00;;;;;6.43;62.77;100516.72;5062448;28;45472;-94
2021/12/09 04:40:32;;;;;;;;;2.00;1.50;;;;;6.42;63.22;100525.41;5062762;28;45396;-93
2021/12/09 04:42:58;;;;;;;;;2.50;2.00;;;;;6.42;63.27;100520.19;5062010;28;45427;-87
2021/12/09 04:45:23;;;;;;;;;1.75;1.75;;;;;6.43;62.75;100526.28;5050108;28;45354;-89
2021/12/09 04:47:48;;;;;;;;;2.00;2.00;;;;;6.43;62.37;100515.84;5053373;28;45399;-90
2021/12/09 04:50:14;;;;;;;;;5.25;2.00;;;;;6.43;62.71;100521.94;5042697;28;45515;-91
2021/12/09 04:52:40;;;;;;;;;2.00;2.00;;;;;6.44;63.07;100525.41;5055066;28;45250;-88
2021/12/09 04:55:07;;;;;;;;;4.50;3.00;;;;;6.45;62.91;100525.38;5047600;28;45540;-89
2021/12/09 04:57:33;;;;;;;;;3.00;2.00;;;;;6.43;63.22;100529.78;5056755;28;48093;-89
2021/12/09 04:59:58;;;;;;;;;3.00;3.00;;;;;6.45;63.15;100527.97;5072119;28;45232;-89
2021/12/09 05:02:41;;;;;;;;;1.50;1.25;;;;;6.41;63.32;100521.09;5048282;28;45282;-88
2021/12/09 05:05:07;;;;;;;;;2.50;2.50;;;;;6.45;63.19;100527.97;5059797;28;45223;-90
2021/12/09 05:07:33;;;;;;;;;4.25;2.50;;;;;6.43;63.01;100532.38;5053088;28;47203;-87
2021/12/09 05:09:58;;;;;;;;;3.50;2.00;;;;;6.45;63.21;100534.94;5060147;28;45286;-87
2021/12/09 05:12:23;;;;;;;;;3.00;3.00;;;;;6.45;62.88;100533.19;5059375;28;45659;-85
2021/12/09 05:14:49;;;;;;;;;3.00;2.00;;;;;6.48;63.12;100542.72;5061527;28;45531;-91
2021/12/09 05:17:16;;;;;;;;;4.25;3.75;;;;;6.48;63.23;100538.38;5059042;28;45568;-91
2021/12/09 05:19:43;;;;;;;;;4.00;3.00;;;;;6.50;62.64;100548.78;5060298;28;45323;-91
2021/12/09 05:22:09;;;;;;;;;3.75;3.75;;;;;6.49;62.56;100545.34;5057763;28;45420;-89
2021/12/09 05:24:34;;;;;;;;;3.75;2.75;;;;;6.53;62.96;100546.13;5060537;28;45418;-88
2021/12/09 05:27:01;;;;;;;;;4.00;3.00;;;;;6.56;63.11;100543.47;5060908;28;45309;-86
2021/12/09 05:29:32;;;;;;;;;6.75;3.75;;;;;6.54;63.02;100540.03;5061329;28;45213;-89
2021/12/09 05:32:07;;;;;;;;;5.75;5.00;;;;;6.56;62.67;100546.06;5060063;28;45440;-84
2021/12/09 05:34:37;;;;;;;;;3.00;3.00;;;;;6.55;63.11;100539.13;5060915;28;45458;-84
2021/12/09 05:37:04;;;;;;;;;5.25;3.50;;;;;6.57;63.08;100541.72;5048905;28;45395;-83
2021/12/09 05:39:29;;;;;;;;;4.00;4.00;;;;;6.58;62.48;100543.41;5061256;28;45512;-83
2021/12/09 05:41:55;;;;;;;;;5.75;5.00;;;;;6.51;62.68;100535.72;5051706;28;45358;-83
2021/12/09 05:44:21;;;;;;;;;4.50;4.25;;;;;6.53;62.90;100546.13;5052908;28;45746;-88
2021/12/09 05:46:47;;;;;;;;;4.50;4.25;;;;;6.52;62.95;100547.00;5053716;28;47235;-88
2021/12/09 05:49:14;;;;;;;;;5.00;4.50;;;;;6.46;62.90;100539.28;5048708;28;46034;-87
2021/12/09 05:51:40;;;;;;;;;4.75;4.75;;;;;6.49;62.71;100545.34;5065694;28;45314;-82
2021/12/09 05:54:06;;;;;;;;;5.50;4.00;;;;;6.43;62.52;100545.44;5055380;28;47360;-82
2021/12/09 05:56:32;;;;;;;;;6.00;6.00;;;;;6.40;63.26;100537.66;5060548;28;45353;-86
2021/12/09 05:58:58;;;;;;;;;4.00;4.00;;;;;6.37;62.69;100533.34;5060652;28;45398;-87
2021/12/09 06:01:23;;;;;;;;;5.75;5.50;;;;;6.39;62.93;100552.47;5059326;28;45501;-90
2021/12/09 06:03:49;;;;;;;;;6.00;4.00;;;;;6.38;62.97;100534.22;5069260;28;46288;-84
2021/12/09 06:06:15;;;;;;;;;7.50;6.00;;;;;6.40;63.24;100548.09;5076193;28;47465;-84
2021/12/09 06:08:41;;;;;;;;;7.75;5.75;;;;;6.41;62.71;100549.81;5058721;28;45370;-83
2021/12/09 06:11:09;;;;;;;;;8.50;6.75;;;;;6.41;63.04;100553.31;5060058;28;45438;-85
2021/12/09 06:13:37;;;;;;;;;3.75;3.75;;;;;6.41;63.37;100558.53;5059024;28;45493;-85
2021/12/09 06:16:03;;;;;;;;;6.25;5.25;;;;;6.43;63.14;100561.09;5057358;28;47526;-86
2021/12/09 06:18:29;;;;;;;;;5.25;5.25;;;;;6.44;62.64;100569.78;5050277;28;45711;-86
2021/12/09 06:20:54;;;;;;;;;4.75;4.75;;;;;6.41;62.73;100570.72;5044420;28;45927;-85
2021/12/09 06:23:20;;;;;;;;;9.25;6.00;;;;;6.43;63.22;100573.28;5050161;28;45547;-79
2021/12/09 06:25:45;;;;;;;;;4.50;3.00;;;;;6.39;63.16;100567.28;5050039;28;45516;-88
2021/12/09 06:28:11;;;;;;;;;6.00;6.00;;;;;6.44;63.13;100581.09;5040898;28;45404;-87
2021/12/09 06:30:36;;;;;;;;;7.00;5.25;;;;;6.45;62.92;100567.16;5043932;28;45390;-86
2021/12/09 06:33:02;;;;;;;;;5.00;5.00;;;;;6.46;62.69;100576.72;5055452;28;45747;-86
2021/12/09 06:35:28;;;;;;;;;8.00;5.00;;;;;6.45;62.53;100571.50;5050468;28;45406;-81
2021/12/09 06:37:55;;;;;;;;;9.50;7.25;;;;;6.47;62.54;100572.38;5053032;28;45414;-80
2021/12/09 06:40:23;;;;;;;;;5.00;5.00;;;;;6.42;62.84;100580.25;5060070;28;45237;-79
2021/12/09 06:42:51;;;;;;;;;9.00;5.00;;;;;6.42;62.64;100580.25;5046605;28;45254;-80
2021/12/09 06:45:19;;;;;;;;;7.50;5.50;;;;;6.38;62.82;100578.59;5045170;28;45399;-79
2021/12/09 06:47:45;;;;;;;;;5.00;5.00;;;;;6.35;62.77;100571.69;5057415;28;45804;-79
2021/12/09 06:50:13;;;;;;;;;7.75;7.25;;;;;6.35;62.83;100571.69;5059495;28;45188;-79
2021/12/09 06:52:39;;;;;;;;;8.75;8.50;;;;;6.28;62.72;100570.94;5045536;28;45240;-79
2021/12/09 06:55:07;;;;;;;;;5.75;5.75;;;;;6.29;62.73;100596.16;5039888;28;45599;-79
2021/12/09 06:57:33;;;;;;;;;5.75;5.00;;;;;6.22;62.46;100586.72;5057907;28;45380;-79
2021/12/09 06:59:58;;;;;;;;;6.50;6.50;;;;;6.23;63.01;100588.41;5058950;28;45599;-79
2021/12/09 07:02:24;;;;;;;;;7.25;6.25;;;;;6.25;62.77;100589.25;5058164;28;45522;-79
2021/12/09 07:04:50;;;;;;;;;7.50;5.75;;;;;6.25;63.05;100585.78;5058809;28;46282;-79
2021/12/09 07:07:15;;;;;;;;;9.25;6.00;;;;;6.27;63.07;100595.31;5059575;28;45224;-78
2021/12/09 07:09:40;;;;;;;;;10.00;7.50;;;;;6.26;62.72;100598.81;5046629;28;45177;-78
2021/12/09 07:12:07;;;;;;;;;10.25;8.00;;;;;6.21;62.68;100603.25;5046094;28;45535;-78
2021/12/09 07:14:32;;;;;;;;;5.75;3.75;;;;;6.16;62.71;100598.09;5058497;28;47388;-78
2021/12/09 07:16:58;;;;;;;;;12.25;6.50;;;;;6.17;63.05;100601.59;5051056;28;45219;-77
2021/12/09 07:19:23;;;;;;;;;9.00;5.50;;;;;6.14;62.97;100591.19;5054297;28;45344;-77
2021/12/09 07:21:49;;;;;;;;;9.00;6.75;;;;;6.12;62.59;100600.81;5075166;28;46392;-77
2021/12/09 07:24:14;;;;;;;;;8.25;8.25;;;;;6.05;63.11;100587.81;5058034;28;47268;-77
2021/12/09 07:26:40;;;;;;;;;5.75;5.75;;;;;6.09;62.91;100593.88;5045566;28;45416;-78
2021/12/09 07:29:06;;;;;;;;;10.50;7.00;;;;;6.12;63.01;100600.81;5055031;28;45491;-77
2021/12/09 07:31:31;;;;;;;;;7.00;6.00;;;;;6.10;63.03;100598.19;5059260;28;45370;-77
2021/12/09 07:33:57;;;;;;;;;9.25;9.25;;;;;6.05;63.01;100600.84;5058696;28;45931;-77
2021/12/09 07:36:24;;;;;;;;;9.25;7.50;;;;;6.05;62.89;100602.63;5054693;28;45247;-77
2021/12/09 07:38:49;;;;;;;;;9.25;7.75;;;;;6.01;62.72;100598.31;5057755;28;45449;-78
2021/12/09 07:41:15;;;;;;;;;10.00;6.50;;;;;6.00;63.20;100605.28;5053014;28;45453;-78
2021/12/09 07:43:42;;;;;;;;;8.25;7.75;;;;;6.03;63.24;100601.75;5049132;28;47694;-78
2021/12/09 07:46:07;;;;;;;;;13.25;9.75;;;;;6.03;62.99;100602.63;5056129;28;45339;-78
2021/12/09 07:48:33;;;;;;;;;8.00;8.00;;;;;5.98;62.88;100596.63;5061587;28;45262;-78
2021/12/09 07:50:58;;;;;;;;;11.50;8.25;;;;;5.96;63.25;100598.41;5058801;28;45504;-78
2021/12/09 07:53:25;;;;;;;;;7.00;6.25;;;;;5.96;63.24;100603.63;5049581;28;48051;-78
2021/12/09 07:55:52;;;;;;;;;8.25;8.00;;;;;5.93;63.00;100608.88;5058544;28;45766;-78
2021/12/09 07:58:18;;;;;;;;;12.00;10.00;;;;;5.95;63.39;100609.75;5075700;28;45370;-78
2021/12/09 08:00:44;;;;;;;;;13.50;9.25;;;;;5.94;62.87;100603.66;5056255;28;47272;-77
2021/12/09 08:03:10;;;;;;;;;9.50;7.75;;;;;5.94;63.16;100602.78;5053362;28;46475;-77
2021/12/09 08:05:39;;;;;;;;;9.50;9.00;;;;;5.94;63.03;100610.59;5056652;28;45770;-77
2021/12/09 08:08:05;;;;;;;;;10.00;8.75;;;;;5.95;63.03;100605.34;5068195;28;45257;-77
2021/12/09 08:10:32;;;;;;;;;10.00;7.75;;;;;5.97;62.97;100610.56;5048145;28;47053;-77
2021/12/09 08:12:59;;;;;;;;;10.50;10.00;;;;;5.98;62.96;100609.66;5062592;28;48543;-77
2021/12/09 08:15:26;;;;;;;;;10.50;10.50;;;;;6.00;62.83;100614.88;5053026;28;45997;-77
2021/12/09 08:20:35;;;;;;;;;12.25;8.75;;;;;5.98;63.59;100612.28;5062187;28;45272;-77
2021/12/09 08:23:01;;;;;;;;;9.75;9.00;;;;;6.00;63.21;100614.88;5052523;28;45402;-77
2021/12/09 08:25:26;;;;;;;;;12.50;10.25;;;;;6.00;63.34;100613.09;5050255;28;45407;-77
2021/12/09 08:27:52;;;;;;;;;10.25;8.75;;;;;6.01;63.29;100620.06;5056736;28;45240;-77
2021/12/09 08:30:22;;;;;;;;;10.00;9.50;;;;;6.02;63.32;100619.19;5049538;28;46598;-77
2021/12/09 08:32:48;;;;;;;;;13.00;8.00;;;;;6.03;63.25;100612.19;5048505;28;46456;-77
2021/12/09 08:35:15;;;;;;;;;15.25;10.00;;;;;6.04;63.16;100614.81;5062321;28;45518;-77
2021/12/09 08:37:41;;;;;;;;;11.25;8.75;;;;;6.03;62.98;100613.06;5060730;28;45273;-77
2021/12/09 08:40:07;;;;;;;;;10.00;9.25;;;;;6.04;63.40;100617.41;5053233;28;47205;-77
2021/12/09 08:42:33;;;;;;;;;9.50;8.00;;;;;6.01;62.96;100598.31;5043004;28;47251;-78
2021/12/09 08:44:58;;;;;;;;;11.00;8.50;;;;;6.05;63.05;100611.28;5052860;28;45481;-77
2021/12/09 08:47:24;;;;;;;;;12.25;10.00;;;;;6.05;62.83;100610.44;5057326;28;45381;-78
2021/12/09 08:49:49;;;;;;;;;12.00;9.00;;;;;6.01;63.13;100607.00;5049784;28;45272;-77
2021/12/09 08:52:15;;;;;;;;;9.25;9.00;;;;;6.05;63.37;100619.13;5060040;28;47483;-77
2021/12/09 08:54:40;;;;;;;;;8.50;8.00;;;;;6.08;62.84;100623.47;5062348;28;45355;-77
2021/12/09 08:57:06;;;;;;;;;9.50;8.50;;;;;6.09;62.70;100622.59;5049358;28;45300;-77
2021/12/09 08:59:32;;;;;;;;;9.25;9.00;;;;;6.07;63.20;100627.81;5057018;28;46996;-77
2021/12/09 09:01:58;;;;;;;;;12.75;9.75;;;;;6.10;63.35;100618.25;5061226;28;46469;-77
2021/12/09 09:04:23;;;;;;;;;10.50;8.75;;;;;6.12;63.13;100626.91;5058911;28;45386;-77
2021/12/09 09:06:55;;;;;;;;;7.75;6.75;;;;;6.14;63.00;100623.38;5047033;28;45646;-76
2021/12/09 09:09:24;;;;;;;;;8.25;7.25;;;;;6.15;62.76;100627.69;5056530;28;45260;-76
2021/12/09 09:11:49;;;;;;;;;12.75;9.50;;;;;6.20;62.85;100640.66;5076949;28;47434;-76
2021/12/09 09:14:14;;;;;;;;;12.50;11.00;;;;;6.23;62.97;100639.75;5054309;28;45338;-77
2021/12/09 09:16:40;;;;;;;;;10.50;9.00;;;;;6.24;62.90;100644.09;5043913;28;45380;-77
2021/12/09 09:19:05;;;;;;;;;7.50;7.50;;;;;6.25;62.91;100644.06;5055383;28;45547;-76
2021/12/09 09:21:31;;;;;;;;;10.50;8.50;;;;;6.26;63.07;100652.75;5061495;28;46385;-76
2021/12/09 09:23:57;;;;;;;;;10.25;8.00;;;;;6.26;62.72;100653.63;5053976;28;45350;-76
2021/12/09 09:26:23;;;;;;;;;9.00;7.25;;;;;6.26;62.76;100651.03;5059833;28;45267;-76
2021/12/09 09:28:49;;;;;;;;;13.50;8.50;;;;;6.30;62.73;100652.69;5059937;28;45350;-76
2021/12/09 09:31:15;;;;;;;;;8.75;8.75;;;;;6.29;62.75;100661.41;5076296;28;47112;-76
2021/12/09 09:33:40;;;;;;;;;11.00;9.75;;;;;6.30;62.80;100663.13;5052402;28;45324;-76
2021/12/09 09:36:06;;;;;;;;;12.50;9.50;;;;;6.32;62.84;100655.28;5053985;28;45445;-76
2021/12/09 09:38:32;;;;;;;;;11.50;7.00;;;;;6.37;62.81;100670.88;5057583;28;45476;-76
2021/12/09 09:41:09;;;;;;;;;9.25;9.00;;;;;6.40;62.63;100660.34;5059672;28;47465;-76
2021/12/09 09:46:17;;;;;;;;;9.00;6.00;;;;;6.44;63.05;100682.94;5051932;28;45512;-76
2021/12/09 09:48:44;;;;;;;;;8.50;5.00;;;;;6.48;62.68;100679.38;5055319;28;45382;-76
2021/12/09 09:51:10;;;;;;;;;5.00;5.00;;;;;6.57;63.46;100690.56;5046296;28;48443;-76
2021/12/09 09:53:38;;;;;;;;;10.75;7.50;;;;;6.63;62.79;100690.44;5052905;28;45244;-76
2021/12/09 09:56:12;;;;;;;;;8.50;6.00;;;;;6.69;62.68;100695.56;5051955;28;45525;-76
2021/12/09 09:58:38;;;;;;;;;6.50;4.00;;;;;6.72;62.47;100698.13;5059138;28;46152;-79
2021/12/09 10:01:04;;;;;;;;;10.50;9.50;;;;;6.73;62.75;100710.31;5058131;28;47882;-78
2021/12/09 10:03:31;;;;;;;;;11.75;6.75;;;;;6.76;62.60;100701.56;5052967;28;45345;-79
2021/12/09 10:05:59;;;;;;;;;12.00;10.00;;;;;6.81;62.56;100698.88;5059152;28;45398;-78
2021/12/09 10:08:24;;;;;;;;;11.25;10.00;;;;;6.83;62.88;100692.72;5053482;28;46077;-79
2021/12/09 10:10:50;;;;;;;;;10.25;9.25;;;;;6.87;62.80;100693.50;5044986;28;48515;-78
2021/12/09 10:13:18;;;;;;;;;11.75;6.75;;;;;6.90;62.55;100682.16;5057042;28;45187;-79
2021/12/09 10:15:50;;;;;;;;;12.00;10.25;;;;;6.93;62.90;100677.75;5049859;28;45269;-79
2021/12/09 10:18:33;;;;;;;;;7.25;7.25;;;;;6.98;62.81;100678.50;5044070;28;45564;-79
2021/12/09 10:20:59;;;;;;;;;6.00;5.75;;;;;7.00;62.63;100677.59;5058663;28;46514;-78
2021/12/09 10:23:30;;;;;;;;;8.00;5.50;;;;;7.09;63.08;100680.91;5055551;28;45451;-79
2021/12/09 10:26:25;;;;;;;;;10.25;7.75;;;;;7.16;62.92;100672.97;5056301;28;45330;-79
2021/12/09 10:32:02;;;;;;;;;7.25;5.50;;;;;7.22;62.90;100666.72;5058671;27;45347;-79
2021/12/09 10:34:33;;;;;;;;;10.00;7.00;;;;;7.28;62.89;100664.88;5056991;28;46014;-79
2021/12/09 10:37:25;;;;;;;;;9.50;8.00;;;;;7.34;62.77;100661.25;5050898;28;45546;-79
2021/12/09 10:40:06;;;;;;;;;12.25;5.75;;;;;7.36;62.64;100651.63;5055060;28;46046;-79
2021/12/09 10:42:39;;;;;;;;;10.50;6.50;;;;;7.39;62.98;100643.72;5055701;28;48073;-79
2021/12/09 10:45:21;;;;;;;;;8.75;6.00;;;;;7.47;62.57;100650.53;5051603;28;45556;-78
2021/12/09 10:48:00;;;;;;;;;6.75;5.00;;;;;7.52;62.34;100643.47;5048016;28;45388;-79
2021/12/09 10:50:41;;;;;;;;;7.00;5.50;;;;;7.56;62.25;100636.38;5054929;28;46441;-79
2021/12/09 10:55:51;;;;;;;;;7.00;5.75;;;;;7.69;62.28;100643.09;5059972;28;45457;-78
2021/12/09 10:58:19;;;;;;;;;6.25;5.00;;;;;7.76;62.38;100628.09;5059667;28;45384;-78
2021/12/09 11:00:57;;;;;;;;;6.75;5.25;;;;;7.91;61.86;100636.50;5057263;28;45476;-79
2021/12/09 11:03:25;;;;;;;;;7.00;4.75;;;;;7.97;61.46;100633.75;5057192;28;48245;-78
2021/12/09 11:05:52;;;;;;;;;7.50;5.00;;;;;7.99;61.72;100626.72;5054947;28;45303;-78
2021/12/09 11:08:30;;;;;;;;;6.50;5.50;;;;;8.07;62.45;100630.00;5052883;28;45323;-78
2021/12/09 11:10:59;;;;;;;;;8.25;6.50;;;;;8.16;62.01;100628.06;5058387;28;46219;-79
2021/12/09 11:13:38;;;;;;;;;8.00;5.75;;;;;8.22;61.68;100623.50;5038610;28;48351;-79
2021/12/09 11:16:05;;;;;;;;;10.00;7.75;;;;;8.24;61.20;100618.25;5045804;28;45887;-78
2021/12/09 11:18:38;;;;;;;;;6.50;6.00;;;;;8.30;61.39;100619.84;5059112;28;45419;-79
2021/12/09 11:21:10;;;;;;;;;5.25;3.25;;;;;8.33;61.47;100609.28;5053889;28;47233;-79
2021/12/09 11:23:45;;;;;;;;;6.75;4.25;;;;;8.37;61.62;100608.31;5055972;28;46189;-79
2021/12/09 11:26:40;;;;;;;;;7.50;6.25;;;;;8.43;61.59;100613.41;5054603;28;46082;-79
2021/12/09 11:29:09;;;;;;;;;6.50;5.75;;;;;8.47;60.77;100602.84;5053954;28;45448;-81
2021/12/09 11:31:56;;;;;;;;;6.00;5.00;;;;;8.46;61.04;100594.13;5047909;28;45544;-79
2021/12/09 11:34:26;;;;;;;;;6.00;6.00;;;;;8.43;59.80;100604.69;5048063;28;45294;-78
2021/12/09 11:36:56;;;;;;;;;8.75;6.25;;;;;8.40;60.77;100589.03;5058339;28;45917;-78
2021/12/09 11:39:30;;;;;;;;;4.50;4.50;;;;;8.44;60.65;100602.00;5047609;28;45242;-79
2021/12/09 11:42:05;;;;;;;;;7.75;6.75;;;;;8.38;60.28;100594.31;5060406;28;47528;-78
2021/12/09 11:44:32;;;;;;;;;10.75;7.50;;;;;8.40;60.33;100595.13;5054157;28;45386;-78
2021/12/09 11:46:57;;;;;;;;;8.50;5.00;;;;;8.43;60.66;100599.44;5055644;28;45684;-78
2021/12/09 11:49:23;;;;;;;;;7.50;6.00;;;;;8.45;60.59;100602.88;5048149;28;45525;-78